Time,TemperatureF,DewpointF,PressureIn,WindDirection,WindDirectionDegrees,WindSpeedMPH,WindSpeedGustMPH,Humidity,HourlyPrecipIn,Conditions,Clouds,dailyrainin,SoftwareType,DateUTC
2013-02-01 00:02:00,0.7,-5.2,30.09,NNW,338,6.3,6.5,76,0.00,,,0.00,WUHU216HW,2013-02-01 06:02:00,
2013-02-01 00:07:00,0.7,-5.2,30.10,North,0,3.8,7.2,76,0.00,,,0.00,WUHU216HW,2013-02-01 06:07:00,
2013-02-01 00:12:00,0.7,-5.2,30.10,NNE,23,2.9,7.2,76,0.00,,,0.00,WUHU216HW,2013-02-01 06:12:00,
2013-02-01 00:17:00,0.5,-5.3,30.10,NNW,338,3.6,6.9,76,0.00,,,0.00,WUHU216HW,2013-02-01 06:17:00,
2013-02-01 00:22:00,0.5,-5.3,30.11,NW,315,1.8,6.3,76,0.00,,,0.00,WUHU216HW,2013-02-01 06:22:00,
2013-02-01 00:27:00,0.5,-5.3,30.10,NNW,338,3.8,6.3,76,0.00,,,0.00,WUHU216HW,2013-02-01 06:27:00,
2013-02-01 00:32:00,0.4,-5.5,30.11,NW,315,4.9,7.6,76,0.00,,,0.00,WUHU216HW,2013-02-01 06:32:00,
2013-02-01 00:37:00,0.4,-5.5,30.11,North,0,2.5,7.6,76,0.00,,,0.00,WUHU216HW,2013-02-01 06:37:00,
2013-02-01 00:42:00,0.2,-5.4,30.11,NNW,338,2.9,6.0,77,0.00,,,0.00,WUHU216HW,2013-02-01 06:42:00,
2013-02-01 00:47:00,0.0,-5.6,30.11,NE,45,2.9,3.8,77,0.00,,,0.00,WUHU216HW,2013-02-01 06:47:00,
2013-02-01 00:52:00,-0.2,-5.8,30.11,NNW,338,2.2,4.7,77,0.00,,,0.00,WUHU216HW,2013-02-01 06:52:00,
2013-02-01 00:57:00,-0.4,-5.6,30.12,NNE,23,2.5,5.1,78,0.00,,,0.00,WUHU216HW,2013-02-01 06:57:00,
2013-02-01 01:02:00,-0.4,-5.6,30.12,NNE,23,6.9,6.9,78,0.00,,,0.00,WUHU216HW,2013-02-01 07:02:00,
2013-02-01 01:07:00,-0.4,-5.6,30.12,NW,315,4.3,6.9,78,0.00,,,0.00,WUHU216HW,2013-02-01 07:07:00,
2013-02-01 01:13:00,-0.5,-5.7,30.12,North,0,3.6,5.4,78,0.00,,,0.00,WUHU216HW,2013-02-01 07:13:00,
2013-02-01 01:18:00,-0.7,-5.9,30.12,North,0,4.0,4.9,78,0.00,,,0.00,WUHU216HW,2013-02-01 07:18:00,
2013-02-01 01:23:00,-0.7,-5.7,30.13,NNW,338,4.3,5.4,79,0.00,,,0.00,WUHU216HW,2013-02-01 07:23:00,
2013-02-01 01:28:00,-0.7,-5.7,30.13,North,0,3.1,5.4,79,0.00,,,0.00,WUHU216HW,2013-02-01 07:28:00,
2013-02-01 01:33:00,-0.7,-5.9,30.13,WSW,248,3.6,6.3,78,0.00,,,0.00,WUHU216HW,2013-02-01 07:33:00,
2013-02-01 01:38:00,-0.9,-6.1,30.13,WSW,248,4.0,6.3,78,0.00,,,0.00,WUHU216HW,2013-02-01 07:38:00,
2013-02-01 01:43:00,-0.9,-6.1,30.13,NE,45,4.0,5.1,78,0.00,,,0.00,WUHU216HW,2013-02-01 07:43:00,
2013-02-01 01:48:00,-0.9,-6.1,30.13,WNW,293,4.9,5.6,78,0.00,,,0.00,WUHU216HW,2013-02-01 07:48:00,
2013-02-01 01:53:00,-0.9,-6.1,30.14,North,0,4.5,5.8,78,0.00,,,0.00,WUHU216HW,2013-02-01 07:53:00,
2013-02-01 01:58:00,-0.9,-6.1,30.14,West,270,1.8,5.8,78,0.00,,,0.00,WUHU216HW,2013-02-01 07:58:00,
2013-02-01 02:03:00,-1.1,-6.3,30.14,NNE,23,4.5,5.6,78,0.00,,,0.00,WUHU216HW,2013-02-01 08:03:00,
2013-02-01 02:08:00,-1.1,-6.3,30.14,WNW,293,3.6,5.6,78,0.00,,,0.00,WUHU216HW,2013-02-01 08:08:00,
2013-02-01 02:13:00,-1.1,-6.3,30.14,WNW,293,5.1,5.1,78,0.00,,,0.00,WUHU216HW,2013-02-01 08:13:00,
2013-02-01 02:18:00,-1.1,-6.3,30.15,NNE,23,3.8,5.8,78,0.00,,,0.00,WUHU216HW,2013-02-01 08:18:00,
2013-02-01 02:23:00,-1.3,-6.5,30.15,West,270,2.7,5.8,78,0.00,,,0.00,WUHU216HW,2013-02-01 08:23:00,
2013-02-01 02:28:00,-1.3,-6.7,30.15,North,0,2.7,7.4,77,0.00,,,0.00,WUHU216HW,2013-02-01 08:28:00,
2013-02-01 02:33:00,-1.4,-6.9,30.15,NW,315,3.4,7.4,77,0.00,,,0.00,WUHU216HW,2013-02-01 08:33:00,
2013-02-01 02:38:00,-1.4,-6.9,30.15,North,0,6.5,6.5,77,0.00,,,0.00,WUHU216HW,2013-02-01 08:38:00,
2013-02-01 02:43:00,-1.6,-7.1,30.16,NW,315,3.1,6.5,77,0.00,,,0.00,WUHU216HW,2013-02-01 08:43:00,
2013-02-01 02:48:00,-1.6,-6.8,30.16,NW,315,4.9,6.9,78,0.00,,,0.00,WUHU216HW,2013-02-01 08:48:00,
2013-02-01 02:53:00,-1.6,-6.8,30.16,North,0,5.1,6.9,78,0.00,,,0.00,WUHU216HW,2013-02-01 08:53:00,
2013-02-01 02:58:00,-1.6,-6.8,30.16,NNE,23,2.7,6.3,78,0.00,,,0.00,WUHU216HW,2013-02-01 08:58:00,
2013-02-01 03:03:00,-1.8,-7.0,30.16,NNW,338,3.6,5.6,78,0.00,,,0.00,WUHU216HW,2013-02-01 09:03:00,
2013-02-01 03:08:00,-1.8,-7.0,30.16,NNE,23,2.9,5.6,78,0.00,,,0.00,WUHU216HW,2013-02-01 09:08:00,
2013-02-01 03:13:00,-1.8,-7.0,30.17,NE,45,4.3,6.9,78,0.00,,,0.00,WUHU216HW,2013-02-01 09:13:00,
2013-02-01 03:18:00,-2.0,-7.2,30.17,NW,315,4.3,6.9,78,0.00,,,0.00,WUHU216HW,2013-02-01 09:18:00,
2013-02-01 03:23:00,-2.0,-7.2,30.17,NNW,338,4.3,6.3,78,0.00,,,0.00,WUHU216HW,2013-02-01 09:23:00,
2013-02-01 03:28:00,-2.2,-7.4,30.17,North,0,2.9,6.5,78,0.00,,,0.00,WUHU216HW,2013-02-01 09:28:00,
2013-02-01 03:33:00,-2.2,-7.4,30.17,NNW,338,3.4,6.5,78,0.00,,,0.00,WUHU216HW,2013-02-01 09:33:00,
2013-02-01 03:38:00,-2.3,-7.6,30.17,NW,315,1.1,6.9,78,0.00,,,0.00,WUHU216HW,2013-02-01 09:38:00,
2013-02-01 03:43:00,-2.5,-7.7,30.17,North,0,6.3,6.9,78,0.00,,,0.00,WUHU216HW,2013-02-01 09:43:00,
2013-02-01 03:48:00,-2.5,-7.7,30.18,East,90,3.4,6.3,78,0.00,,,0.00,WUHU216HW,2013-02-01 09:48:00,
2013-02-01 03:53:00,-2.5,-7.7,30.18,NW,315,4.0,7.4,78,0.00,,,0.00,WUHU216HW,2013-02-01 09:53:00,
2013-02-01 03:58:00,-2.7,-7.9,30.18,NW,315,2.5,7.4,78,0.00,,,0.00,WUHU216HW,2013-02-01 09:58:00,
2013-02-01 04:03:00,-2.9,-8.1,30.18,North,0,3.4,5.4,78,0.00,,,0.00,WUHU216HW,2013-02-01 10:03:00,
2013-02-01 04:09:00,-3.1,-8.3,30.19,NW,315,5.1,6.9,78,0.00,,,0.00,WUHU216HW,2013-02-01 10:09:00,
2013-02-01 04:14:00,-3.1,-8.3,30.19,NE,45,1.6,6.9,78,0.00,,,0.00,WUHU216HW,2013-02-01 10:14:00,
2013-02-01 04:19:00,-3.2,-8.5,30.19,ESE,113,6.5,6.5,78,0.00,,,0.00,WUHU216HW,2013-02-01 10:19:00,
2013-02-01 04:24:00,-3.2,-8.5,30.19,NNW,338,2.9,6.5,78,0.00,,,0.00,WUHU216HW,2013-02-01 10:24:00,
2013-02-01 04:29:00,-3.2,-8.5,30.19,NW,315,2.5,6.5,78,0.00,,,0.00,WUHU216HW,2013-02-01 10:29:00,
2013-02-01 04:34:00,-3.2,-8.5,30.19,North,0,2.5,6.7,78,0.00,,,0.00,WUHU216HW,2013-02-01 10:34:00,
2013-02-01 04:39:00,-3.4,-8.6,30.19,NNW,338,3.1,6.7,78,0.00,,,0.00,WUHU216HW,2013-02-01 10:39:00,
2013-02-01 04:44:00,-3.6,-8.8,30.20,ENE,68,3.4,4.9,78,0.00,,,0.00,WUHU216HW,2013-02-01 10:44:00,
2013-02-01 04:49:00,-3.6,-8.8,30.20,North,0,2.2,4.9,78,0.00,,,0.00,WUHU216HW,2013-02-01 10:49:00,
2013-02-01 04:54:00,-3.8,-9.0,30.20,SW,225,2.5,4.9,78,0.00,,,0.00,WUHU216HW,2013-02-01 10:54:00,
2013-02-01 04:59:00,-4.0,-9.2,30.20,NNW,338,5.6,5.6,78,0.00,,,0.00,WUHU216HW,2013-02-01 10:59:00,
2013-02-01 05:04:00,-4.0,-9.2,30.20,NE,45,2.7,5.6,78,0.00,,,0.00,WUHU216HW,2013-02-01 11:04:00,
2013-02-01 05:09:00,-4.0,-9.2,30.20,North,0,3.6,5.6,78,0.00,,,0.00,WUHU216HW,2013-02-01 11:09:00,
2013-02-01 05:14:00,-4.1,-9.4,30.20,NW,315,2.5,6.5,78,0.00,,,0.00,WUHU216HW,2013-02-01 11:14:00,
2013-02-01 05:19:00,-4.1,-9.4,30.20,NNW,338,1.3,6.5,78,0.00,,,0.00,WUHU216HW,2013-02-01 11:19:00,
2013-02-01 05:24:00,-4.3,-9.5,30.20,North,0,2.0,5.4,78,0.00,,,0.00,WUHU216HW,2013-02-01 11:24:00,
2013-02-01 05:29:00,-4.5,-9.4,30.20,NNW,338,2.9,5.1,79,0.00,,,0.00,WUHU216HW,2013-02-01 11:29:00,
2013-02-01 05:34:00,-4.5,-9.4,30.20,NNE,23,2.2,5.1,79,0.00,,,0.00,WUHU216HW,2013-02-01 11:34:00,
2013-02-01 05:39:00,-4.7,-9.6,30.21,NNE,23,4.7,4.7,79,0.00,,,0.00,WUHU216HW,2013-02-01 11:39:00,
2013-02-01 05:44:00,-4.7,-9.6,30.21,NNE,23,1.1,5.4,79,0.00,,,0.00,WUHU216HW,2013-02-01 11:44:00,
2013-02-01 05:49:00,-4.7,-9.6,30.21,WSW,248,1.3,5.4,79,0.00,,,0.00,WUHU216HW,2013-02-01 11:49:00,
2013-02-01 05:54:00,-4.7,-9.6,30.21,NNE,23,3.6,5.4,79,0.00,,,0.00,WUHU216HW,2013-02-01 11:54:00,
2013-02-01 05:59:00,-4.7,-9.6,30.21,SSE,158,1.1,5.4,79,0.00,,,0.00,WUHU216HW,2013-02-01 11:59:00,
2013-02-01 06:04:00,-4.9,-9.8,30.21,NNW,338,4.0,4.0,79,0.00,,,0.00,WUHU216HW,2013-02-01 12:04:00,
2013-02-01 06:09:00,-5.0,-10.0,30.21,WSW,248,2.2,4.0,79,0.00,,,0.00,WUHU216HW,2013-02-01 12:09:00,
2013-02-01 06:14:00,-5.0,-10.0,30.22,WNW,293,1.1,4.0,79,0.00,,,0.00,WUHU216HW,2013-02-01 12:14:00,
2013-02-01 06:19:00,-5.2,-10.2,30.22,WNW,293,2.0,4.5,79,0.00,,,0.00,WUHU216HW,2013-02-01 12:19:00,
2013-02-01 06:24:00,-5.2,-10.2,30.22,NW,315,1.8,4.7,79,0.00,,,0.00,WUHU216HW,2013-02-01 12:24:00,
2013-02-01 06:29:00,-5.4,-10.6,30.22,North,0,4.0,4.7,78,0.00,,,0.00,WUHU216HW,2013-02-01 12:29:00,
2013-02-01 06:35:00,-5.4,-10.6,30.22,NNW,338,3.4,4.5,78,0.00,,,0.00,WUHU216HW,2013-02-01 12:35:00,
2013-02-01 06:40:00,-5.4,-10.6,30.22,North,0,2.5,4.3,78,0.00,,,0.00,WUHU216HW,2013-02-01 12:40:00,
2013-02-01 06:45:00,-5.4,-10.6,30.22,NNW,338,3.8,4.7,78,0.00,,,0.00,WUHU216HW,2013-02-01 12:45:00,
2013-02-01 06:50:00,-5.6,-10.8,30.23,North,0,1.8,4.7,78,0.00,,,0.00,WUHU216HW,2013-02-01 12:50:00,
2013-02-01 06:55:00,-5.8,-11.0,30.23,North,0,1.3,4.0,78,0.00,,,0.00,WUHU216HW,2013-02-01 12:55:00,
2013-02-01 07:00:00,-5.8,-11.0,30.23,NNE,23,1.8,4.3,78,0.00,,,0.00,WUHU216HW,2013-02-01 13:00:00,
2013-02-01 07:05:00,-5.9,-11.2,30.23,North,0,1.8,4.3,78,0.00,,,0.00,WUHU216HW,2013-02-01 13:05:00,
2013-02-01 07:10:00,-5.9,-11.2,30.23,NNE,23,3.1,4.5,78,0.00,,,0.00,WUHU216HW,2013-02-01 13:10:00,
2013-02-01 07:15:00,-5.9,-11.2,30.23,NW,315,3.1,4.5,78,0.00,,,0.00,WUHU216HW,2013-02-01 13:15:00,
2013-02-01 07:20:00,-5.9,-11.2,30.24,North,0,4.0,5.6,78,0.00,,,0.00,WUHU216HW,2013-02-01 13:20:00,
2013-02-01 07:25:00,-5.9,-11.2,30.24,North,0,2.2,5.6,78,0.00,,,0.00,WUHU216HW,2013-02-01 13:25:00,
2013-02-01 07:30:00,-5.9,-11.2,30.24,North,0,2.7,5.1,78,0.00,,,0.00,WUHU216HW,2013-02-01 13:30:00,
2013-02-01 07:35:00,-5.9,-11.2,30.23,North,0,1.8,4.9,78,0.00,,,0.00,WUHU216HW,2013-02-01 13:35:00,
2013-02-01 07:40:00,-5.9,-11.4,30.24,SSE,158,2.7,4.9,77,0.00,,,0.00,WUHU216HW,2013-02-01 13:40:00,
2013-02-01 07:45:00,-5.9,-11.4,30.24,North,0,5.4,5.4,77,0.00,,,0.00,WUHU216HW,2013-02-01 13:45:00,
2013-02-01 07:50:00,-5.9,-11.4,30.24,North,0,2.7,5.4,77,0.00,,,0.00,WUHU216HW,2013-02-01 13:50:00,
2013-02-01 07:55:00,-5.8,-11.2,30.24,NW,315,2.9,5.4,77,0.00,,,0.00,WUHU216HW,2013-02-01 13:55:00,
2013-02-01 08:00:00,-5.6,-11.1,30.24,NNE,23,4.0,5.8,77,0.00,,,0.00,WUHU216HW,2013-02-01 14:00:00,
2013-02-01 08:05:00,-5.6,-11.3,30.24,NNW,338,4.0,5.8,76,0.00,,,0.00,WUHU216HW,2013-02-01 14:05:00,
2013-02-01 08:10:00,-5.6,-11.3,30.25,WNW,293,3.4,5.8,76,0.00,,,0.00,WUHU216HW,2013-02-01 14:10:00,
2013-02-01 08:15:00,-5.4,-11.2,30.25,NW,315,1.1,5.6,76,0.00,,,0.00,WUHU216HW,2013-02-01 14:15:00,
2013-02-01 08:20:00,-5.4,-10.9,30.25,NNE,23,4.5,4.7,77,0.00,,,0.00,WUHU216HW,2013-02-01 14:20:00,
2013-02-01 08:25:00,-5.4,-10.9,30.25,NNE,23,3.8,6.3,77,0.00,,,0.00,WUHU216HW,2013-02-01 14:25:00,
2013-02-01 08:30:00,-5.4,-10.9,30.26,North,0,2.0,6.3,77,0.00,,,0.00,WUHU216HW,2013-02-01 14:30:00,
2013-02-01 08:35:00,-5.2,-11.0,30.26,North,0,3.8,5.4,76,0.00,,,0.00,WUHU216HW,2013-02-01 14:35:00,
2013-02-01 08:40:00,-5.0,-10.8,30.25,NW,315,2.5,4.5,76,0.00,,,0.00,WUHU216HW,2013-02-01 14:40:00,
2013-02-01 08:45:00,-5.0,-10.8,30.25,NNE,23,3.6,4.5,76,0.00,,,0.00,WUHU216HW,2013-02-01 14:45:00,
2013-02-01 08:50:00,-4.9,-10.9,30.25,NNE,23,5.1,5.1,75,0.00,,,0.00,WUHU216HW,2013-02-01 14:50:00,
2013-02-01 08:55:00,-4.9,-10.9,30.26,NNW,338,2.5,5.1,75,0.00,,,0.00,WUHU216HW,2013-02-01 14:55:00,
2013-02-01 09:00:00,-4.7,-10.7,30.26,North,0,2.5,4.9,75,0.00,,,0.00,WUHU216HW,2013-02-01 15:00:00,
2013-02-01 09:05:00,-4.5,-10.5,30.26,NW,315,2.5,4.5,75,0.00,,,0.00,WUHU216HW,2013-02-01 15:05:00,
2013-02-01 09:11:00,-4.5,-10.5,30.26,NNE,23,3.4,5.4,75,0.00,,,0.00,WUHU216HW,2013-02-01 15:11:00,
2013-02-01 09:16:00,-4.3,-10.6,30.25,NW,315,6.5,6.5,74,0.00,,,0.00,WUHU216HW,2013-02-01 15:16:00,
2013-02-01 09:21:00,-4.5,-10.8,30.25,North,0,6.3,6.5,74,0.00,,,0.00,WUHU216HW,2013-02-01 15:21:00,
2013-02-01 09:26:00,-4.1,-10.4,30.25,NNE,23,4.5,6.5,74,0.00,,,0.00,WUHU216HW,2013-02-01 15:26:00,
2013-02-01 09:31:00,-4.3,-10.6,30.25,West,270,3.6,6.3,74,0.00,,,0.00,WUHU216HW,2013-02-01 15:31:00,
2013-02-01 09:36:00,-4.0,-10.3,30.26,North,0,1.8,6.0,74,0.00,,,0.00,WUHU216HW,2013-02-01 15:36:00,
2013-02-01 09:41:00,-4.0,-10.3,30.25,NNW,338,4.7,5.8,74,0.00,,,0.00,WUHU216HW,2013-02-01 15:41:00,
2013-02-01 09:46:00,-3.8,-10.1,30.25,NNW,338,3.6,6.0,74,0.00,,,0.00,WUHU216HW,2013-02-01 15:46:00,
2013-02-01 09:51:00,-3.8,-10.1,30.26,North,0,1.8,6.5,74,0.00,,,0.00,WUHU216HW,2013-02-01 15:51:00,
2013-02-01 09:56:00,-3.4,-9.7,30.25,NNE,23,2.5,6.5,74,0.00,,,0.00,WUHU216HW,2013-02-01 15:56:00,
2013-02-01 10:01:00,-2.7,-9.0,30.25,NW,315,3.8,5.1,74,0.00,,,0.00,WUHU216HW,2013-02-01 16:01:00,
2013-02-01 10:06:00,-2.5,-9.1,30.25,WNW,293,3.4,3.8,73,0.00,,,0.00,WUHU216HW,2013-02-01 16:06:00,
2013-02-01 10:11:00,-2.9,-9.7,30.25,NNE,23,4.7,5.4,72,0.00,,,0.00,WUHU216HW,2013-02-01 16:11:00,
2013-02-01 10:16:00,-2.5,-9.4,30.25,WNW,293,2.5,5.4,72,0.00,,,0.00,WUHU216HW,2013-02-01 16:16:00,
2013-02-01 10:21:00,-2.2,-9.0,30.25,North,0,3.4,5.4,72,0.00,,,0.00,WUHU216HW,2013-02-01 16:21:00,
2013-02-01 10:26:00,-2.2,-9.0,30.25,NNE,23,2.7,5.4,72,0.00,,,0.00,WUHU216HW,2013-02-01 16:26:00,
2013-02-01 10:31:00,-1.8,-8.6,30.25,NE,45,1.8,5.4,72,0.00,,,0.00,WUHU216HW,2013-02-01 16:31:00,
2013-02-01 10:36:00,-1.1,-8.5,30.25,NNE,23,1.8,4.7,70,0.00,,,0.00,WUHU216HW,2013-02-01 16:36:00,
2013-02-01 10:41:00,-0.7,-7.9,30.25,NW,315,2.9,4.7,71,0.00,,,0.00,WUHU216HW,2013-02-01 16:41:00,
2013-02-01 10:46:00,-0.4,-8.2,30.25,North,0,1.8,4.5,69,0.00,,,0.00,WUHU216HW,2013-02-01 16:46:00,
2013-02-01 10:51:00,0.4,-7.2,30.25,NNE,23,3.1,3.6,70,0.00,,,0.00,WUHU216HW,2013-02-01 16:51:00,
2013-02-01 10:56:00,0.7,-6.3,30.25,East,90,2.0,3.4,72,0.00,,,0.00,WUHU216HW,2013-02-01 16:56:00,
2013-02-01 11:01:00,0.5,-6.7,30.25,North,0,3.6,4.5,71,0.00,,,0.00,WUHU216HW,2013-02-01 17:01:00,
2013-02-01 11:06:00,1.1,-6.5,30.25,North,0,1.8,4.5,70,0.00,,,0.00,WUHU216HW,2013-02-01 17:06:00,
2013-02-01 11:11:00,1.6,-6.3,30.25,South,180,1.1,3.6,69,0.00,,,0.00,WUHU216HW,2013-02-01 17:11:00,
2013-02-01 11:16:00,2.0,-5.9,30.25,North,0,0.7,3.6,69,0.00,,,0.00,WUHU216HW,2013-02-01 17:16:00,
2013-02-01 11:21:00,3.2,-4.7,30.25,NW,315,0.4,3.6,69,0.00,,,0.00,WUHU216HW,2013-02-01 17:21:00,
2013-02-01 11:26:00,4.0,-4.7,30.24,SSW,203,3.8,3.8,67,0.00,,,0.00,WUHU216HW,2013-02-01 17:26:00,
2013-02-01 11:31:00,4.7,-4.3,30.24,NNW,338,1.1,5.1,66,0.00,,,0.00,WUHU216HW,2013-02-01 17:31:00,
2013-02-01 11:36:00,5.2,-4.5,30.24,SSW,203,3.8,5.1,64,0.00,,,0.00,WUHU216HW,2013-02-01 17:36:00,
2013-02-01 11:41:00,5.2,-4.5,30.24,NW,315,1.6,4.5,64,0.00,,,0.00,WUHU216HW,2013-02-01 17:41:00,
2013-02-01 11:46:00,5.4,-4.0,30.23,WSW,248,4.0,4.3,65,0.00,,,0.00,WUHU216HW,2013-02-01 17:46:00,
2013-02-01 11:51:00,5.6,-4.1,30.23,SSW,203,2.2,4.3,64,0.00,,,0.00,WUHU216HW,2013-02-01 17:51:00,
2013-02-01 11:56:00,6.1,-3.6,30.23,SW,225,1.1,4.0,64,0.00,,,0.00,WUHU216HW,2013-02-01 17:56:00,
2013-02-01 12:01:00,7.2,-2.5,30.23,SW,225,2.0,3.8,64,0.00,,,0.00,WUHU216HW,2013-02-01 18:01:00,
2013-02-01 12:06:00,7.9,-2.5,30.23,WNW,293,0.7,3.6,62,0.00,,,0.00,WUHU216HW,2013-02-01 18:06:00,
2013-02-01 12:11:00,7.6,-3.5,30.23,NW,315,2.2,3.6,60,0.00,,,0.00,WUHU216HW,2013-02-01 18:11:00,
2013-02-01 12:16:00,7.4,-3.7,30.23,SW,225,3.4,4.3,60,0.00,,,0.00,WUHU216HW,2013-02-01 18:16:00,
2013-02-01 12:21:00,8.1,-3.0,30.23,NNW,338,2.2,4.3,60,0.00,,,0.00,WUHU216HW,2013-02-01 18:21:00,
2013-02-01 12:27:00,7.9,-3.5,30.23,SSE,158,3.1,4.0,59,0.00,,,0.00,WUHU216HW,2013-02-01 18:27:00,
2013-02-01 12:32:00,8.1,-3.8,30.22,WSW,248,1.3,4.3,58,0.00,,,0.00,WUHU216HW,2013-02-01 18:32:00,
2013-02-01 12:37:00,9.0,-2.5,30.22,South,180,2.5,4.3,59,0.00,,,0.00,WUHU216HW,2013-02-01 18:37:00,
2013-02-01 12:42:00,9.5,-3.5,30.22,SSW,203,2.5,4.3,55,0.00,,,0.00,WUHU216HW,2013-02-01 18:42:00,
2013-02-01 12:47:00,7.4,-5.6,30.22,SSW,203,3.4,6.0,55,0.00,,,0.00,WUHU216HW,2013-02-01 18:47:00,
2013-02-01 12:52:00,8.3,-4.3,30.22,SW,225,3.4,6.9,56,0.00,,,0.00,WUHU216HW,2013-02-01 18:52:00,
2013-02-01 12:57:00,8.5,-4.2,30.22,SW,225,3.4,6.9,56,0.00,,,0.00,WUHU216HW,2013-02-01 18:57:00,
2013-02-01 13:02:00,9.2,-3.9,30.22,West,270,2.5,5.6,55,0.00,,,0.00,WUHU216HW,2013-02-01 19:02:00,
2013-02-01 13:07:00,11.2,-0.8,30.22,WSW,248,1.1,5.4,58,0.00,,,0.00,WUHU216HW,2013-02-01 19:07:00,
2013-02-01 13:12:00,11.7,-2.6,30.21,WSW,248,4.0,4.5,52,0.00,,,0.00,WUHU216HW,2013-02-01 19:12:00,
2013-02-01 13:17:00,10.1,-4.1,30.21,SE,135,4.3,4.9,52,0.00,,,0.00,WUHU216HW,2013-02-01 19:17:00,
2013-02-01 13:22:00,10.1,-4.1,30.21,South,180,4.9,5.6,52,0.00,,,0.00,WUHU216HW,2013-02-01 19:22:00,
2013-02-01 13:27:00,9.5,-5.0,30.21,SSW,203,2.9,6.7,51,0.00,,,0.00,WUHU216HW,2013-02-01 19:27:00,
2013-02-01 13:32:00,9.7,-4.5,30.21,SW,225,5.6,6.7,52,0.00,,,0.00,WUHU216HW,2013-02-01 19:32:00,
2013-02-01 13:37:00,9.7,-4.9,30.21,WSW,248,4.9,5.6,51,0.00,,,0.00,WUHU216HW,2013-02-01 19:37:00,
2013-02-01 13:42:00,9.7,-5.2,30.21,WSW,248,4.5,6.7,50,0.00,,,0.00,WUHU216HW,2013-02-01 19:42:00,
2013-02-01 13:47:00,9.7,-4.9,30.20,SSW,203,2.9,6.7,51,0.00,,,0.00,WUHU216HW,2013-02-01 19:47:00,
2013-02-01 13:52:00,11.0,-3.6,30.20,SW,225,2.7,7.6,51,0.00,,,0.00,WUHU216HW,2013-02-01 19:52:00,
2013-02-01 13:57:00,11.9,-2.4,30.20,NE,45,2.0,7.6,52,0.00,,,0.00,WUHU216HW,2013-02-01 19:57:00,
2013-02-01 14:02:00,11.2,-3.5,30.21,NNE,23,1.8,5.4,51,0.00,,,0.00,WUHU216HW,2013-02-01 20:02:00,
2013-02-01 14:07:00,11.2,-3.5,30.20,SSE,158,3.4,6.5,51,0.00,,,0.00,WUHU216HW,2013-02-01 20:07:00,
2013-02-01 14:12:00,11.2,-4.8,30.20,South,180,3.1,6.5,48,0.00,,,0.00,WUHU216HW,2013-02-01 20:12:00,
2013-02-01 14:17:00,9.9,-5.0,30.20,South,180,4.0,6.7,50,0.00,,,0.00,WUHU216HW,2013-02-01 20:17:00,
2013-02-01 14:22:00,10.4,-4.5,30.20,NNW,338,5.4,6.7,50,0.00,,,0.00,WUHU216HW,2013-02-01 20:22:00,
2013-02-01 14:27:00,10.8,-4.1,30.20,SSE,158,2.2,6.7,50,0.00,,,0.00,WUHU216HW,2013-02-01 20:27:00,
2013-02-01 14:32:00,10.4,-4.9,30.20,SSW,203,4.7,6.5,49,0.00,,,0.00,WUHU216HW,2013-02-01 20:32:00,
2013-02-01 14:37:00,9.9,-5.0,30.20,SW,225,4.0,6.5,50,0.00,,,0.00,WUHU216HW,2013-02-01 20:37:00,
2013-02-01 14:42:00,10.1,-5.3,30.20,NW,315,2.9,6.3,49,0.00,,,0.00,WUHU216HW,2013-02-01 20:42:00,
2013-02-01 14:47:00,9.7,-5.2,30.20,WSW,248,3.4,6.5,50,0.00,,,0.00,WUHU216HW,2013-02-01 20:47:00,
2013-02-01 14:52:00,9.4,-5.6,30.20,WSW,248,2.5,6.5,50,0.00,,,0.00,WUHU216HW,2013-02-01 20:52:00,
2013-02-01 14:57:00,9.4,-5.2,30.19,WSW,248,2.5,6.7,51,0.00,,,0.00,WUHU216HW,2013-02-01 20:57:00,
2013-02-01 15:02:00,9.9,-4.3,30.19,SW,225,2.0,6.7,52,0.00,,,0.00,WUHU216HW,2013-02-01 21:02:00,
2013-02-01 15:07:00,9.0,-5.9,30.19,SSE,158,1.8,4.9,50,0.00,,,0.00,WUHU216HW,2013-02-01 21:07:00,
2013-02-01 15:12:00,6.7,-6.6,30.19,SW,225,3.8,5.1,54,0.00,,,0.00,WUHU216HW,2013-02-01 21:12:00,
2013-02-01 15:17:00,5.8,-6.6,30.19,SW,225,2.7,5.1,56,0.00,,,0.00,WUHU216HW,2013-02-01 21:17:00,
2013-02-01 15:22:00,5.2,-6.8,30.19,SSE,158,1.6,4.7,57,0.00,,,0.00,WUHU216HW,2013-02-01 21:22:00,
2013-02-01 15:27:00,5.0,-6.7,30.19,NNW,338,3.6,4.3,58,0.00,,,0.00,WUHU216HW,2013-02-01 21:27:00,
2013-02-01 15:32:00,5.2,-6.1,30.19,SW,225,5.8,5.8,59,0.00,,,0.00,WUHU216HW,2013-02-01 21:32:00,
2013-02-01 15:37:00,4.7,-6.3,30.19,SSE,158,4.7,5.8,60,0.00,,,0.00,WUHU216HW,2013-02-01 21:37:00,
2013-02-01 15:42:00,4.7,-6.3,30.18,South,180,2.5,5.8,60,0.00,,,0.00,WUHU216HW,2013-02-01 21:42:00,
2013-02-01 15:47:00,4.5,-6.4,30.18,South,180,2.2,4.9,60,0.00,,,0.00,WUHU216HW,2013-02-01 21:47:00,
2013-02-01 15:52:00,4.0,-6.6,30.18,SSW,203,4.3,5.1,61,0.00,,,0.00,WUHU216HW,2013-02-01 21:52:00,
2013-02-01 15:57:00,4.0,-6.3,30.18,SSE,158,4.9,5.4,62,0.00,,,0.00,WUHU216HW,2013-02-01 21:57:00,
2013-02-01 16:02:00,4.0,-6.3,30.18,SSW,203,1.1,5.4,62,0.00,,,0.00,WUHU216HW,2013-02-01 22:02:00,
2013-02-01 16:07:00,3.8,-6.4,30.18,SSW,203,2.5,4.9,62,0.00,,,0.00,WUHU216HW,2013-02-01 22:07:00,
2013-02-01 16:12:00,3.6,-6.3,30.17,SSE,158,1.8,4.0,63,0.00,,,0.00,WUHU216HW,2013-02-01 22:12:00,
2013-02-01 16:17:00,3.6,-6.3,30.17,SSW,203,1.3,4.3,63,0.00,,,0.00,WUHU216HW,2013-02-01 22:17:00,
2013-02-01 16:22:00,3.4,-6.1,30.17,NE,45,4.0,4.3,64,0.00,,,0.00,WUHU216HW,2013-02-01 22:22:00,
2013-02-01 16:27:00,3.2,-6.3,30.16,SSE,158,0.9,4.7,64,0.00,,,0.00,WUHU216HW,2013-02-01 22:27:00,
2013-02-01 16:32:00,3.2,-5.9,30.16,SW,225,2.0,4.7,65,0.00,,,0.00,WUHU216HW,2013-02-01 22:32:00,
2013-02-01 16:37:00,3.2,-5.9,30.16,South,180,1.8,4.7,65,0.00,,,0.00,WUHU216HW,2013-02-01 22:37:00,
2013-02-01 16:42:00,3.1,-6.5,30.17,East,90,2.5,5.4,64,0.00,,,0.00,WUHU216HW,2013-02-01 22:42:00,
2013-02-01 16:47:00,2.9,-6.3,30.17,South,180,3.6,5.4,65,0.00,,,0.00,WUHU216HW,2013-02-01 22:47:00,
2013-02-01 16:52:00,2.7,-6.5,30.17,WNW,293,3.8,4.5,65,0.00,,,0.00,WUHU216HW,2013-02-01 22:52:00,
2013-02-01 16:57:00,2.5,-6.7,30.16,SW,225,4.0,6.5,65,0.00,,,0.00,WUHU216HW,2013-02-01 22:57:00,
2013-02-01 17:02:00,2.5,-6.3,30.17,South,180,1.8,6.5,66,0.00,,,0.00,WUHU216HW,2013-02-01 23:02:00,
2013-02-01 17:07:00,2.5,-6.3,30.17,WSW,248,1.8,5.4,66,0.00,,,0.00,WUHU216HW,2013-02-01 23:07:00,
2013-02-01 17:12:00,2.2,-6.6,30.17,WSW,248,1.1,4.0,66,0.00,,,0.00,WUHU216HW,2013-02-01 23:12:00,
2013-02-01 17:17:00,2.2,-6.6,30.16,West,270,1.3,3.4,66,0.00,,,0.00,WUHU216HW,2013-02-01 23:17:00,
2013-02-01 17:22:00,2.2,-6.4,30.16,SSW,203,1.1,3.4,67,0.00,,,0.00,WUHU216HW,2013-02-01 23:22:00,
2013-02-01 17:27:00,2.3,-6.2,30.16,South,180,1.1,4.9,67,0.00,,,0.00,WUHU216HW,2013-02-01 23:27:00,
2013-02-01 17:32:00,2.3,-5.8,30.16,South,180,4.3,4.9,68,0.00,,,0.00,WUHU216HW,2013-02-01 23:32:00,
2013-02-01 17:37:00,2.3,-6.2,30.16,SSW,203,3.4,4.3,67,0.00,,,0.00,WUHU216HW,2013-02-01 23:37:00,
2013-02-01 17:42:00,2.3,-5.8,30.16,WSW,248,1.6,4.5,68,0.00,,,0.00,WUHU216HW,2013-02-01 23:42:00,
2013-02-01 17:47:00,2.5,-5.7,30.15,WSW,248,2.5,4.5,68,0.00,,,0.00,WUHU216HW,2013-02-01 23:47:00,
2013-02-01 17:52:00,2.5,-5.7,30.15,South,180,1.3,4.5,68,0.00,,,0.00,WUHU216HW,2013-02-01 23:52:00,
2013-02-01 17:57:00,2.7,-5.2,30.15,SW,225,2.9,3.8,69,0.00,,,0.00,WUHU216HW,2013-02-01 23:57:00,
2013-02-01 18:02:00,2.9,-5.0,30.15,SW,225,2.5,4.7,69,0.00,,,0.00,WUHU216HW,2013-02-02 00:02:00,
2013-02-01 18:07:00,2.9,-5.0,30.15,SW,225,3.8,4.7,69,0.00,,,0.00,WUHU216HW,2013-02-02 00:07:00,
2013-02-01 18:12:00,2.9,-5.0,30.15,WSW,248,1.6,4.7,69,0.00,,,0.00,WUHU216HW,2013-02-02 00:12:00,
2013-02-01 18:17:00,3.1,-4.9,30.15,SSE,158,2.9,4.7,69,0.00,,,0.00,WUHU216HW,2013-02-02 00:17:00,
2013-02-01 18:22:00,3.2,-4.7,30.15,NW,315,4.0,4.5,69,0.00,,,0.00,WUHU216HW,2013-02-02 00:22:00,
2013-02-01 18:27:00,3.2,-4.7,30.15,South,180,3.4,5.6,69,0.00,,,0.00,WUHU216HW,2013-02-02 00:27:00,
2013-02-01 18:32:00,3.2,-4.7,30.15,SSW,203,4.7,5.6,69,0.00,,,0.00,WUHU216HW,2013-02-02 00:32:00,
2013-02-01 18:37:00,3.2,-4.7,30.15,South,180,4.0,6.0,69,0.00,,,0.00,WUHU216HW,2013-02-02 00:37:00,
2013-02-01 18:42:00,3.2,-4.7,30.14,SSW,203,1.3,6.0,69,0.00,,,0.00,WUHU216HW,2013-02-02 00:42:00,
2013-02-01 18:47:00,3.4,-4.5,30.14,SSW,203,4.3,5.1,69,0.00,,,0.00,WUHU216HW,2013-02-02 00:47:00,
2013-02-01 18:52:00,3.4,-4.1,30.14,WNW,293,4.0,5.1,70,0.00,,,0.00,WUHU216HW,2013-02-02 00:52:00,
2013-02-01 18:57:00,3.4,-4.5,30.14,South,180,6.0,6.0,69,0.00,,,0.00,WUHU216HW,2013-02-02 00:57:00,
2013-02-01 19:02:00,3.4,-4.1,30.14,SSW,203,1.8,6.0,70,0.00,,,0.00,WUHU216HW,2013-02-02 01:02:00,
2013-02-01 19:07:00,3.6,-3.9,30.14,WSW,248,2.9,6.0,70,0.00,,,0.00,WUHU216HW,2013-02-02 01:07:00,
2013-02-01 19:12:00,3.6,-3.7,30.14,SSE,158,3.1,5.8,71,0.00,,,0.00,WUHU216HW,2013-02-02 01:12:00,
2013-02-01 19:18:00,3.6,-3.4,30.14,West,270,2.5,5.8,72,0.00,,,0.00,WUHU216HW,2013-02-02 01:18:00,
2013-02-01 19:23:00,3.6,-3.1,30.14,SW,225,1.3,5.4,73,0.00,,,0.00,WUHU216HW,2013-02-02 01:23:00,
2013-02-01 19:28:00,3.6,-3.1,30.14,SSE,158,2.7,4.5,73,0.00,,,0.00,WUHU216HW,2013-02-02 01:28:00,
2013-02-01 19:33:00,3.6,-2.9,30.14,SW,225,2.0,4.0,74,0.00,,,0.00,WUHU216HW,2013-02-02 01:33:00,
2013-02-01 19:38:00,3.8,-2.1,30.14,SW,225,3.1,4.3,76,0.00,,,0.00,WUHU216HW,2013-02-02 01:38:00,
2013-02-01 19:43:00,3.6,-2.1,30.14,SSW,203,3.1,5.8,77,0.00,,,0.00,WUHU216HW,2013-02-02 01:43:00,
2013-02-01 19:48:00,3.6,-1.8,30.14,SSW,203,1.6,5.8,78,0.00,,,0.00,WUHU216HW,2013-02-02 01:48:00,
2013-02-01 19:53:00,3.6,-1.8,30.14,WNW,293,3.6,4.7,78,0.00,,,0.00,WUHU216HW,2013-02-02 01:53:00,
2013-02-01 19:58:00,3.6,-1.8,30.15,SE,135,4.5,5.1,78,0.00,,,0.00,WUHU216HW,2013-02-02 01:58:00,
2013-02-01 20:03:00,3.8,-1.3,30.15,SW,225,2.2,5.1,79,0.00,,,0.00,WUHU216HW,2013-02-02 02:03:00,
2013-02-01 20:08:00,3.8,-1.3,30.14,SSW,203,2.5,4.5,79,0.00,,,0.00,WUHU216HW,2013-02-02 02:08:00,
2013-02-01 20:13:00,4.0,-1.2,30.14,South,180,1.1,4.3,79,0.00,,,0.00,WUHU216HW,2013-02-02 02:13:00,
2013-02-01 20:18:00,4.0,-1.4,30.14,NNW,338,1.6,5.1,78,0.00,,,0.00,WUHU216HW,2013-02-02 02:18:00,
2013-02-01 20:23:00,4.0,-1.4,30.14,SSE,158,1.1,5.1,78,0.00,,,0.00,WUHU216HW,2013-02-02 02:23:00,
2013-02-01 20:28:00,4.0,-1.4,30.14,SSW,203,4.0,4.7,78,0.00,,,0.00,WUHU216HW,2013-02-02 02:28:00,
2013-02-01 20:33:00,4.0,-1.4,30.14,SE,135,0.9,4.7,78,0.00,,,0.00,WUHU216HW,2013-02-02 02:33:00,
2013-02-01 20:38:00,4.1,-1.2,30.14,South,180,2.0,4.0,78,0.00,,,0.00,WUHU216HW,2013-02-02 02:38:00,
2013-02-01 20:43:00,4.1,-1.5,30.13,SW,225,2.2,3.6,77,0.00,,,0.00,WUHU216HW,2013-02-02 02:43:00,
2013-02-01 20:48:00,4.1,-1.5,30.13,SSE,158,2.0,4.7,77,0.00,,,0.00,WUHU216HW,2013-02-02 02:48:00,
2013-02-01 20:54:00,4.1,-1.2,30.13,South,180,1.1,4.7,78,0.00,,,0.00,WUHU216HW,2013-02-02 02:54:00,
2013-02-01 20:59:00,4.3,-1.1,30.12,South,180,2.5,4.3,78,0.00,,,0.00,WUHU216HW,2013-02-02 02:59:00,
2013-02-01 21:04:00,4.3,-0.8,30.12,SSW,203,2.7,4.3,79,0.00,,,0.00,WUHU216HW,2013-02-02 03:04:00,
2013-02-01 21:09:00,4.3,-0.8,30.12,SW,225,3.1,4.7,79,0.00,,,0.00,WUHU216HW,2013-02-02 03:09:00,
2013-02-01 21:14:00,4.3,-0.5,30.12,West,270,1.1,4.7,80,0.00,,,0.00,WUHU216HW,2013-02-02 03:14:00,
2013-02-01 21:19:00,4.3,-0.5,30.12,WSW,248,0.7,3.4,80,0.00,,,0.00,WUHU216HW,2013-02-02 03:19:00,
2013-02-01 21:24:00,4.3,-0.3,30.12,SSW,203,1.1,2.7,81,0.00,,,0.00,WUHU216HW,2013-02-02 03:24:00,
2013-02-01 21:29:00,4.3,-0.3,30.12,SE,135,0.4,3.6,81,0.00,,,0.00,WUHU216HW,2013-02-02 03:29:00,
2013-02-01 21:34:00,4.3,-0.5,30.12,SSE,158,1.3,3.6,80,0.00,,,0.00,WUHU216HW,2013-02-02 03:34:00,
2013-02-01 21:39:00,4.3,-0.5,30.12,South,180,1.6,2.9,80,0.00,,,0.00,WUHU216HW,2013-02-02 03:39:00,
2013-02-01 21:44:00,4.3,-0.5,30.12,SW,225,1.1,3.8,80,0.00,,,0.00,WUHU216HW,2013-02-02 03:44:00,
2013-02-01 21:49:00,4.3,-0.3,30.12,South,180,0.9,3.8,81,0.00,,,0.00,WUHU216HW,2013-02-02 03:49:00,
2013-02-01 21:54:00,4.5,-0.1,30.12,WSW,248,0.4,3.4,81,0.00,,,0.00,WUHU216HW,2013-02-02 03:54:00,
2013-02-01 21:59:00,4.5,0.2,30.12,WSW,248,0.4,2.5,82,0.00,,,0.00,WUHU216HW,2013-02-02 03:59:00,
2013-02-01 22:04:00,4.5,0.2,30.12,WSW,248,0.4,2.0,82,0.00,,,0.00,WUHU216HW,2013-02-02 04:04:00,
2013-02-01 22:09:00,4.7,0.4,30.12,SSW,203,0.9,2.5,82,0.00,,,0.00,WUHU216HW,2013-02-02 04:09:00,
2013-02-01 22:14:00,4.7,0.4,30.12,SW,225,0.4,4.0,82,0.00,,,0.00,WUHU216HW,2013-02-02 04:14:00,
2013-02-01 22:19:00,4.7,0.4,30.11,SSW,203,2.5,4.0,82,0.00,,,0.00,WUHU216HW,2013-02-02 04:19:00,
2013-02-01 22:24:00,4.7,0.4,30.11,SSW,203,2.5,2.5,82,0.00,,,0.00,WUHU216HW,2013-02-02 04:24:00,
2013-02-01 23:00:00,5.0,0.7,30.09,South,180,1.6,1.6,82,0.00,,,0.00,WUHU216HW,2013-02-02 05:00:00,
2013-02-01 23:01:00,5.0,0.7,30.09,SSW,203,0.0,1.6,82,0.00,,,0.00,WUHU216HW,2013-02-02 05:01:00,
2013-02-01 23:06:00,5.0,0.7,30.09,SSW,203,0.7,1.6,82,0.00,,,0.00,WUHU216HW,2013-02-02 05:06:00,
2013-02-01 23:11:00,5.0,0.7,30.09,SSW,203,0.7,0.7,82,0.00,,,0.00,WUHU216HW,2013-02-02 05:11:00,